createdAt,value
2023-08-10T00:00:40.014Z,941.2
2023-08-10T00:15:40.608Z,941.4
2023-08-10T00:30:41.500Z,942.7
2023-08-10T01:00:42.401Z,943.4
2023-08-10T01:12:25.876Z,941.8
2023-08-10T01:15:43.027Z,941.5
2023-08-10T01:30:44.037Z,941
2023-08-10T01:45:44.943Z,941.4
2023-08-10T02:00:45.569Z,941.7
2023-08-10T02:15:46.037Z,942.6
2023-08-10T02:30:46.972Z,941.9
2023-08-10T02:45:47.058Z,941.5
2023-08-10T03:00:48.920Z,942.9
2023-08-10T03:15:48.554Z,942.6
2023-08-10T03:30:49.336Z,942.6
2023-08-10T03:45:50.777Z,943.5
2023-08-10T04:00:51.777Z,943.7
2023-08-10T04:06:09.823Z,943.3
2023-08-10T04:21:10.309Z,942.8
2023-08-10T04:36:11.713Z,942.4
2023-08-10T04:51:12.416Z,942.3
2023-08-10T05:06:12.561Z,943.5
2023-08-10T05:21:14.888Z,943.9
2023-08-10T05:36:15.867Z,943.9
2023-08-10T05:51:15.166Z,943
2023-08-10T06:06:15.688Z,943.7
2023-08-10T06:21:16.780Z,945
2023-08-10T06:36:17.484Z,945.4
2023-08-10T06:51:17.334Z,944.8
2023-08-10T07:06:18.407Z,944.8
2023-08-10T07:21:18.338Z,944
2023-08-10T07:36:21.363Z,944
2023-08-10T07:51:19.998Z,941.3
2023-08-10T08:06:20.933Z,940.8
2023-08-10T08:21:21.602Z,939.9
2023-08-10T08:36:21.957Z,939.9
2023-08-10T08:51:23.715Z,939.4
2023-08-10T09:06:23.138Z,940
2023-08-10T09:21:23.894Z,939
2023-08-10T09:36:24.573Z,938.9
2023-08-10T09:51:25.327Z,938.5
2023-08-10T10:06:25.670Z,938.3
2023-08-10T10:21:26.604Z,938
2023-08-10T10:36:28.338Z,937.6
2023-08-10T10:51:28.720Z,937.5
2023-08-10T11:06:29.558Z,937.3
2023-08-10T11:21:29.988Z,937.1
2023-08-10T11:36:30.610Z,937
2023-08-10T11:51:31.481Z,936.8
2023-08-10T12:06:31.196Z,936.9
2023-08-10T12:21:32.622Z,936.8
2023-08-10T12:36:32.715Z,936.6
2023-08-10T12:51:33.541Z,936.6
2023-08-10T13:06:34.508Z,936.6
2023-08-10T13:21:35.221Z,936.6
2023-08-10T13:36:36.407Z,936.6
2023-08-10T13:51:36.839Z,936.8
2023-08-10T14:06:36.604Z,936.6
2023-08-10T14:21:37.671Z,936.7
2023-08-10T14:36:38.690Z,936.6
2023-08-10T14:51:38.741Z,936.5
2023-08-10T15:06:39.783Z,936.5
2023-08-10T15:21:40.870Z,936.7
2023-08-10T15:36:40.908Z,936.6
2023-08-10T15:51:41.758Z,936.7
2023-08-10T16:06:42.779Z,936.6
2023-08-10T16:21:43.202Z,936.5
2023-08-10T16:36:44.504Z,936.5
2023-08-10T16:51:44.293Z,936.5
2023-08-10T17:06:44.941Z,936.5
2023-08-10T17:21:46.182Z,936.6
2023-08-10T17:36:48.042Z,936.6
2023-08-10T17:51:48.246Z,936.6
2023-08-10T18:06:48.103Z,936.6
2023-08-10T18:21:59.588Z,936.6
2023-08-10T18:36:52.237Z,936.7
2023-08-10T18:51:49.778Z,937
2023-08-10T19:06:50.134Z,937.2
2023-08-10T19:21:50.853Z,937.3
2023-08-10T19:36:51.818Z,937.4
2023-08-10T19:51:58.656Z,937.4
2023-08-10T20:06:58.204Z,937.4
2023-08-10T20:21:53.956Z,937.5
2023-08-10T20:36:56.541Z,937.5
2023-08-10T20:52:08.986Z,937.8
2023-08-10T21:06:55.718Z,938.3
2023-08-10T21:22:00.196Z,938.3
2023-08-10T21:36:59.400Z,938.2
2023-08-10T21:52:08.886Z,938.3
2023-08-10T22:00:38.391Z,938.7
2023-08-10T22:15:34.336Z,939.6
2023-08-10T22:30:36.251Z,938.9
2023-08-10T22:45:36.019Z,941.1
2023-08-10T23:00:35.990Z,942
2023-08-10T23:15:36.308Z,939.2
2023-08-10T23:30:41.042Z,941
2023-08-10T23:45:38.173Z,940.6
